createdAt,value
2019-01-26T00:01:11.027Z,-4.46
2019-01-26T00:03:44.810Z,-4.47
2019-01-26T00:06:16.482Z,-4.49
2019-01-26T00:08:49.304Z,-4.42
2019-01-26T00:11:20.612Z,-4.47
2019-01-26T00:13:54.628Z,-4.44
2019-01-26T00:16:25.837Z,-4.46
2019-01-26T00:18:59.690Z,-4.45
2019-01-26T00:21:31.660Z,-4.48
2019-01-26T00:24:05.989Z,-4.43
2019-01-26T00:26:38.862Z,-4.42
2019-01-26T00:29:10.308Z,-4.42
2019-01-26T00:31:43.729Z,-4.41
2019-01-26T00:34:18.113Z,-4.42
2019-01-26T00:36:51.825Z,-4.42
2019-01-26T00:39:26.210Z,-4.50
2019-01-26T00:41:59.866Z,-4.46
2019-01-26T00:44:31.205Z,-4.50
2019-01-26T00:47:02.492Z,-4.50
2019-01-26T00:49:36.229Z,-4.50
2019-01-26T00:52:09.852Z,-4.55
2019-01-26T00:54:41.741Z,-4.56
2019-01-26T00:57:13.585Z,-4.53
2019-01-26T00:59:46.062Z,-4.55
2019-01-26T01:02:17.947Z,-4.48
2019-01-26T01:04:50.950Z,-4.49
2019-01-26T01:07:23.875Z,-4.59
2019-01-26T01:09:55.384Z,-4.54
2019-01-26T01:12:26.739Z,-4.55
2019-01-26T01:14:59.955Z,-4.62
2019-01-26T01:17:33.763Z,-4.58
2019-01-26T01:20:06.299Z,-4.52
2019-01-26T01:22:37.501Z,-4.49
2019-01-26T01:25:12.186Z,-4.55
2019-01-26T01:27:44.126Z,-4.54
2019-01-26T01:30:19.926Z,-4.56
2019-01-26T01:32:51.982Z,-4.58
2019-01-26T01:35:25.376Z,-4.54
2019-01-26T01:37:59.940Z,-4.53
2019-01-26T01:40:34.379Z,-4.53
2019-01-26T01:43:07.150Z,-4.40
2019-01-26T01:45:38.458Z,-4.49
2019-01-26T01:48:11.949Z,-4.56
2019-01-26T01:50:47.376Z,-4.45
2019-01-26T01:53:22.964Z,-4.40
2019-01-26T01:55:54.184Z,-4.37
2019-01-26T01:58:28.152Z,-4.39
2019-01-26T02:01:00.983Z,-4.36
2019-01-26T02:03:33.129Z,-4.34
2019-01-26T02:06:10.052Z,-4.41
2019-01-26T02:08:43.433Z,-4.31
2019-01-26T02:11:15.342Z,-4.38
2019-01-26T02:13:49.199Z,-4.33
2019-01-26T02:16:22.742Z,-4.36
2019-01-26T02:18:56.359Z,-4.37
2019-01-26T02:21:30.186Z,-4.41
2019-01-26T02:24:04.232Z,-4.38
2019-01-26T02:26:37.161Z,-4.36
2019-01-26T02:29:09.203Z,-4.35
2019-01-26T02:31:42.020Z,-4.33
2019-01-26T02:34:15.288Z,-4.35
2019-01-26T02:36:46.530Z,-4.24
2019-01-26T02:39:18.529Z,-4.27
2019-01-26T02:41:52.964Z,-4.27
2019-01-26T02:44:28.942Z,-4.36
2019-01-26T02:47:00.454Z,-4.38
2019-01-26T02:49:35.908Z,-4.34
2019-01-26T02:52:08.460Z,-4.29
2019-01-26T02:54:42.750Z,-4.26
2019-01-26T02:57:16.431Z,-4.23
2019-01-26T02:59:49.193Z,-4.33
2019-01-26T03:02:21.005Z,-4.29
2019-01-26T03:04:52.295Z,-4.27
2019-01-26T03:07:25.156Z,-4.22
2019-01-26T03:09:59.106Z,-4.16
2019-01-26T03:12:30.401Z,-4.23
2019-01-26T03:15:05.000Z,-4.31
2019-01-26T03:17:36.559Z,-4.29
2019-01-26T03:20:10.981Z,-4.33
2019-01-26T03:22:43.900Z,-4.29
2019-01-26T03:25:19.301Z,-4.25
2019-01-26T03:27:51.534Z,-4.19
2019-01-26T03:30:25.704Z,-4.18
2019-01-26T03:32:59.561Z,-4.14
2019-01-26T03:35:35.022Z,-4.10
2019-01-26T03:38:07.434Z,-4.13
2019-01-26T03:40:38.645Z,-4.06
2019-01-26T03:43:12.139Z,-4.01
2019-01-26T03:45:43.561Z,-4.01
2019-01-26T03:48:15.583Z,-4.04
2019-01-26T03:50:47.469Z,-4.02
2019-01-26T03:53:18.820Z,-3.98
2019-01-26T03:55:52.685Z,-4.02
2019-01-26T03:58:24.680Z,-3.95
2019-01-26T04:00:58.019Z,-3.97
2019-01-26T04:03:30.224Z,-3.97
2019-01-26T04:06:02.824Z,-4.00
2019-01-26T04:08:36.695Z,-4.03
2019-01-26T04:11:12.130Z,-3.97
2019-01-26T04:13:47.243Z,-3.95
2019-01-26T04:16:18.461Z,-3.90
2019-01-26T04:18:51.238Z,-3.90
2019-01-26T04:21:23.588Z,-3.95
2019-01-26T04:23:56.795Z,-3.94
2019-01-26T04:26:32.410Z,-3.92
2019-01-26T04:29:05.848Z,-3.97
2019-01-26T04:31:38.698Z,-3.97
2019-01-26T04:34:09.966Z,-3.97
2019-01-26T04:36:41.202Z,-3.99
2019-01-26T04:39:12.491Z,-3.99
2019-01-26T04:41:45.649Z,-4.02
2019-01-26T04:44:16.858Z,-4.01
2019-01-26T04:46:49.648Z,-3.96
2019-01-26T04:49:21.847Z,-4.01
2019-01-26T04:51:53.775Z,-3.98
2019-01-26T04:54:26.964Z,-3.94
2019-01-26T04:56:59.256Z,-3.98
2019-01-26T04:59:32.039Z,-4.01
2019-01-26T05:02:05.831Z,-4.02
2019-01-26T05:04:39.812Z,-3.98
2019-01-26T05:07:11.096Z,-3.97
2019-01-26T05:09:44.970Z,-3.92
2019-01-26T05:12:16.183Z,-3.91
2019-01-26T05:14:49.940Z,-3.87
2019-01-26T05:17:21.935Z,-3.85
2019-01-26T05:19:54.915Z,-3.82
2019-01-26T05:22:28.719Z,-3.78
2019-01-26T05:24:59.905Z,-3.72
2019-01-26T05:27:34.013Z,-3.73
2019-01-26T05:30:12.299Z,-3.66
2019-01-26T05:32:44.896Z,-3.66
2019-01-26T05:35:19.046Z,-3.58
2019-01-26T05:37:50.229Z,-3.50
2019-01-26T05:40:21.424Z,-3.39
2019-01-26T05:42:55.170Z,-3.32
2019-01-26T05:45:30.840Z,-3.31
2019-01-26T05:48:03.221Z,-3.30
2019-01-26T05:50:35.583Z,-3.24
2019-01-26T05:53:08.268Z,-3.20
2019-01-26T05:55:40.156Z,-3.16
2019-01-26T05:58:12.126Z,-3.11
2019-01-26T06:00:44.478Z,-3.03
2019-01-26T06:03:18.533Z,-3.06
2019-01-26T06:05:52.235Z,-3.03
2019-01-26T06:08:27.795Z,-3.05
2019-01-26T06:11:00.338Z,-3.01
2019-01-26T06:13:35.137Z,-3.04
2019-01-26T06:16:10.698Z,-3.01
2019-01-26T06:18:43.421Z,-3.04
2019-01-26T06:21:17.336Z,-3.06
2019-01-26T06:23:49.142Z,-3.04
2019-01-26T06:26:21.242Z,-3.01
2019-01-26T06:28:54.943Z,-2.95
2019-01-26T06:31:27.740Z,-2.90
2019-01-26T06:33:59.192Z,-2.88
2019-01-26T06:36:33.247Z,-2.87
2019-01-26T06:39:08.436Z,-2.83
2019-01-26T06:41:41.394Z,-2.85
2019-01-26T06:44:12.983Z,-2.87
2019-01-26T06:46:46.435Z,-2.80
2019-01-26T06:49:17.951Z,-2.74
2019-01-26T06:51:54.679Z,-2.73
2019-01-26T06:54:28.464Z,-2.68
2019-01-26T06:56:59.696Z,-2.65
2019-01-26T06:59:31.378Z,-2.69
2019-01-26T07:02:06.097Z,-2.69
2019-01-26T07:04:45.777Z,-2.66
2019-01-26T07:07:20.234Z,-2.64
2019-01-26T07:09:53.687Z,-2.61
2019-01-26T07:12:26.089Z,-2.62
2019-01-26T07:14:57.292Z,-2.61
2019-01-26T07:17:28.561Z,-2.55
2019-01-26T07:20:03.682Z,-2.57
2019-01-26T07:22:36.459Z,-2.58
2019-01-26T07:25:10.521Z,-2.49
2019-01-26T07:27:44.595Z,-2.49
2019-01-26T07:30:20.038Z,-2.42
2019-01-26T07:32:51.512Z,-2.46
2019-01-26T07:35:25.560Z,-2.49
2019-01-26T07:37:59.541Z,-2.45
2019-01-26T07:40:33.570Z,-2.44
2019-01-26T07:43:10.252Z,-2.43
2019-01-26T07:45:44.740Z,-2.41
2019-01-26T07:48:18.724Z,-2.38
2019-01-26T07:50:52.550Z,-2.37
2019-01-26T07:53:24.730Z,-2.42
2019-01-26T07:55:57.713Z,-2.43
2019-01-26T07:58:28.958Z,-2.44
2019-01-26T08:01:02.764Z,-2.42
2019-01-26T08:03:36.689Z,-2.39
2019-01-26T08:06:11.412Z,-2.41
2019-01-26T08:08:44.671Z,-2.41
2019-01-26T08:11:18.483Z,-2.38
2019-01-26T08:13:49.695Z,-2.33
2019-01-26T08:16:22.743Z,-2.31
2019-01-26T08:18:54.943Z,-2.31
2019-01-26T08:21:27.833Z,-2.34
2019-01-26T08:24:01.873Z,-2.23
2019-01-26T08:26:34.853Z,-2.22
2019-01-26T08:29:09.462Z,-2.22
2019-01-26T08:31:41.186Z,-2.21
2019-01-26T08:34:12.466Z,-2.19
2019-01-26T08:36:45.975Z,-2.18
2019-01-26T08:39:19.805Z,-2.18
2019-01-26T08:41:55.520Z,-2.17
2019-01-26T08:44:29.073Z,-2.08
2019-01-26T08:47:02.082Z,-2.05
2019-01-26T08:49:33.294Z,-2.09
2019-01-26T08:52:06.896Z,-2.02
2019-01-26T08:54:38.135Z,-2.05
2019-01-26T08:57:12.132Z,-2.06
2019-01-26T08:59:46.084Z,-2.00
2019-01-26T09:02:50.752Z,-1.98
2019-01-26T09:05:24.128Z,-1.94
2019-01-26T09:07:55.399Z,-1.85
2019-01-26T09:10:28.974Z,-1.91
2019-01-26T09:13:03.027Z,-1.88
2019-01-26T09:15:36.936Z,-1.81
2019-01-26T09:18:12.581Z,-1.71
2019-01-26T09:20:45.038Z,-1.68
2019-01-26T09:23:16.294Z,-1.62
2019-01-26T09:25:50.106Z,-1.58
2019-01-26T09:28:24.083Z,-1.52
2019-01-26T09:30:58.068Z,-1.40
2019-01-26T09:33:32.091Z,-1.49
2019-01-26T09:36:06.589Z,-1.39
2019-01-26T09:38:42.539Z,-1.30
2019-01-26T09:41:16.207Z,-1.32
2019-01-26T09:43:48.167Z,-1.26
2019-01-26T09:46:22.509Z,-1.18
2019-01-26T09:48:55.894Z,-1.13
2019-01-26T09:51:27.269Z,-1.14
2019-01-26T09:54:01.694Z,-1.14
2019-01-26T09:56:34.240Z,-1.10
2019-01-26T09:59:08.657Z,-1.06
2019-01-26T10:01:42.078Z,-1.00
2019-01-26T10:04:14.344Z,-0.93
2019-01-26T10:06:48.936Z,-0.88
2019-01-26T10:09:23.152Z,-0.93
2019-01-26T10:11:55.342Z,-0.96
2019-01-26T10:14:26.638Z,-0.89
2019-01-26T10:17:00.717Z,-0.79
2019-01-26T10:19:35.013Z,-0.80
2019-01-26T10:22:08.220Z,-0.77
2019-01-26T10:24:42.339Z,-0.69
2019-01-26T10:27:13.589Z,-0.64
2019-01-26T10:29:47.431Z,-0.61
2019-01-26T10:32:19.462Z,-0.55
2019-01-26T10:34:52.371Z,-0.55
2019-01-26T10:37:26.926Z,-0.59
2019-01-26T10:40:00.270Z,-0.50
2019-01-26T10:42:34.421Z,-0.49
2019-01-26T10:45:07.576Z,-0.39
2019-01-26T10:47:43.391Z,-0.49
2019-01-26T10:50:15.507Z,-0.38
2019-01-26T10:52:48.219Z,-0.47
2019-01-26T10:55:20.691Z,-0.41
2019-01-26T10:57:54.496Z,-0.19
2019-01-26T11:00:28.689Z,-0.22
2019-01-26T11:03:04.651Z,-0.27
2019-01-26T11:05:38.101Z,-0.27
2019-01-26T11:08:10.396Z,-0.21
2019-01-26T11:10:41.602Z,-0.29
2019-01-26T11:13:12.864Z,-0.24
2019-01-26T11:15:48.273Z,-0.23
2019-01-26T11:18:20.757Z,-0.19
2019-01-26T11:20:53.533Z,-0.15
2019-01-26T11:23:29.192Z,-0.16
2019-01-26T11:26:01.856Z,-0.11
2019-01-26T11:28:33.368Z,-0.10
2019-01-26T11:31:11.215Z,-0.14
2019-01-26T11:33:45.016Z,-0.01
2019-01-26T11:36:18.710Z,-0.14
2019-01-26T11:38:50.792Z,-0.07
2019-01-26T11:41:22.984Z,-0.15
2019-01-26T11:43:56.786Z,-0.13
2019-01-26T11:46:38.299Z,-0.16
2019-01-26T11:49:15.096Z,-0.14
2019-01-26T11:51:48.993Z,-0.09
2019-01-26T11:54:21.725Z,-0.11
2019-01-26T11:56:59.260Z,-0.13
2019-01-26T11:59:33.107Z,-0.11
2019-01-26T12:02:22.274Z,-0.12
2019-01-26T12:05:05.488Z,0.02
2019-01-26T12:07:39.018Z,-0.04
2019-01-26T12:10:11.840Z,-0.07
2019-01-26T12:12:43.695Z,-0.03
2019-01-26T12:15:16.750Z,-0.08
2019-01-26T12:17:47.966Z,0.02
2019-01-26T12:20:19.969Z,0.05
2019-01-26T12:22:52.850Z,0.00
2019-01-26T12:25:24.387Z,0.04
2019-01-26T12:27:57.990Z,0.03
2019-01-26T12:30:32.456Z,0.10
2019-01-26T12:33:06.309Z,0.24
2019-01-26T12:35:39.986Z,0.25
2019-01-26T12:38:11.823Z,0.28
2019-01-26T12:40:45.098Z,0.30
2019-01-26T12:43:16.368Z,0.27
2019-01-26T12:45:51.745Z,0.36
2019-01-26T12:48:24.493Z,0.33
2019-01-26T12:50:58.035Z,0.36
2019-01-26T12:53:32.098Z,0.35
2019-01-26T12:56:06.838Z,0.41
2019-01-26T12:58:45.980Z,0.40
2019-01-26T13:01:18.893Z,0.43
2019-01-26T13:03:51.048Z,0.48
2019-01-26T13:06:24.978Z,0.45
2019-01-26T13:08:56.197Z,0.47
2019-01-26T13:11:30.696Z,0.45
2019-01-26T13:14:04.535Z,0.48
2019-01-26T13:16:38.068Z,0.60
2019-01-26T13:19:12.361Z,0.59
2019-01-26T13:21:44.335Z,0.59
2019-01-26T13:24:16.379Z,0.68
2019-01-26T13:26:47.559Z,0.68
2019-01-26T13:29:19.125Z,0.63
2019-01-26T13:31:52.087Z,0.66
2019-01-26T13:34:26.030Z,0.55
2019-01-26T13:37:00.057Z,0.60
2019-01-26T13:39:34.077Z,0.60
2019-01-26T13:42:08.339Z,0.67
2019-01-26T13:44:39.556Z,0.67
2019-01-26T13:47:10.804Z,0.57
2019-01-26T13:49:44.317Z,0.65
2019-01-26T13:52:16.229Z,0.63
2019-01-26T13:54:49.258Z,0.67
2019-01-26T13:57:20.458Z,0.71
2019-01-26T13:59:54.434Z,0.73
2019-01-26T14:02:26.156Z,0.68
2019-01-26T14:04:59.439Z,0.73
2019-01-26T14:07:34.866Z,0.73
2019-01-26T14:10:08.419Z,0.76
2019-01-26T14:12:43.107Z,0.77
2019-01-26T14:15:16.797Z,0.85
2019-01-26T14:17:51.124Z,0.89
2019-01-26T14:20:23.685Z,0.87
2019-01-26T14:22:58.351Z,0.86
2019-01-26T14:25:32.550Z,0.88
2019-01-26T14:28:05.604Z,0.96
2019-01-26T14:30:41.941Z,0.97
2019-01-26T14:33:13.237Z,1.03
2019-01-26T14:35:44.681Z,1.11
2019-01-26T14:38:18.392Z,1.10
2019-01-26T14:40:49.737Z,1.10
2019-01-26T14:43:23.351Z,1.13
2019-01-26T14:45:54.547Z,1.12
2019-01-26T14:48:29.377Z,1.13
2019-01-26T14:51:03.084Z,1.14
2019-01-26T14:53:36.102Z,1.14
2019-01-26T14:56:07.270Z,1.21
2019-01-26T14:58:43.593Z,1.18
2019-01-26T15:01:16.602Z,1.19
2019-01-26T15:03:48.596Z,1.16
2019-01-26T15:06:22.591Z,1.15
2019-01-26T15:08:58.100Z,1.19
2019-01-26T15:11:30.621Z,1.24
2019-01-26T15:14:06.160Z,1.23
2019-01-26T15:16:40.362Z,1.34
2019-01-26T15:19:12.845Z,1.39
2019-01-26T15:21:46.814Z,1.40
2019-01-26T15:24:18.052Z,1.37
2019-01-26T15:26:53.432Z,1.43
2019-01-26T15:29:27.364Z,1.40
2019-01-26T15:31:59.803Z,1.45
2019-01-26T15:34:31.738Z,1.43
2019-01-26T15:37:04.677Z,1.47
2019-01-26T15:39:38.622Z,1.50
2019-01-26T15:42:09.836Z,1.56
2019-01-26T15:44:43.678Z,1.52
2019-01-26T15:47:16.807Z,1.49
2019-01-26T15:49:48.960Z,1.55
2019-01-26T15:52:21.849Z,1.51
2019-01-26T15:54:53.651Z,1.54
2019-01-26T15:57:27.650Z,1.58
2019-01-26T16:00:03.165Z,1.62
2019-01-26T16:02:35.660Z,1.66
2019-01-26T16:05:09.229Z,1.66
2019-01-26T16:07:42.872Z,1.66
2019-01-26T16:10:20.544Z,1.70
2019-01-26T16:12:53.533Z,1.68
2019-01-26T16:15:28.173Z,1.76
2019-01-26T16:18:02.521Z,1.80
2019-01-26T16:20:35.973Z,1.76
2019-01-26T16:23:09.987Z,1.67
2019-01-26T16:25:41.193Z,1.61
2019-01-26T16:28:12.413Z,1.66
2019-01-26T16:30:43.625Z,1.65
2019-01-26T16:33:17.183Z,1.82
2019-01-26T16:35:48.976Z,1.86
2019-01-26T16:38:22.185Z,1.82
2019-01-26T16:40:55.926Z,1.82
2019-01-26T16:43:29.918Z,1.85
2019-01-26T16:46:04.292Z,1.86
2019-01-26T16:48:37.077Z,1.80
2019-01-26T16:51:10.718Z,1.92
2019-01-26T16:53:43.868Z,1.89
2019-01-26T16:56:16.838Z,1.90
2019-01-26T16:58:53.113Z,1.86
2019-01-26T17:01:24.815Z,1.83
2019-01-26T17:03:57.595Z,1.89
2019-01-26T17:06:29.995Z,1.85
2019-01-26T17:09:04.951Z,1.87
2019-01-26T17:11:38.178Z,1.78
2019-01-26T17:14:11.081Z,1.88
2019-01-26T17:16:45.091Z,1.78
2019-01-26T17:19:16.641Z,1.90
2019-01-26T17:21:47.890Z,1.91
2019-01-26T17:24:21.230Z,1.85
2019-01-26T17:26:55.235Z,1.75
2019-01-26T17:29:29.210Z,1.84
2019-01-26T17:32:04.738Z,1.80
2019-01-26T17:34:37.934Z,1.83
2019-01-26T17:37:11.419Z,1.79
2019-01-26T17:39:45.277Z,1.78
2019-01-26T17:42:18.044Z,1.78
2019-01-26T17:44:50.144Z,1.78
2019-01-26T17:47:22.610Z,1.91
2019-01-26T17:49:55.148Z,1.82
2019-01-26T17:52:27.381Z,1.95
2019-01-26T17:55:00.385Z,1.83
2019-01-26T17:57:31.589Z,1.85
2019-01-26T18:00:02.894Z,1.76
2019-01-26T18:02:36.404Z,1.79
2019-01-26T18:05:11.030Z,1.89
2019-01-26T18:07:44.427Z,1.81
2019-01-26T18:10:18.070Z,1.86
2019-01-26T18:12:50.375Z,1.78
2019-01-26T18:15:23.389Z,1.74
2019-01-26T18:17:54.584Z,1.91
2019-01-26T18:20:27.001Z,1.79
2019-01-26T18:23:00.864Z,1.83
2019-01-26T18:25:37.014Z,1.74
2019-01-26T18:28:10.503Z,1.97
2019-01-26T18:30:44.622Z,1.84
2019-01-26T18:33:15.823Z,1.78
2019-01-26T18:35:49.478Z,1.80
2019-01-26T18:38:23.333Z,1.87
2019-01-26T18:40:54.644Z,1.91
2019-01-26T18:43:28.416Z,1.85
2019-01-26T18:45:59.688Z,1.87
2019-01-26T18:48:33.195Z,1.79
2019-01-26T18:51:06.538Z,1.98
2019-01-26T18:53:38.424Z,1.90
2019-01-26T18:56:11.535Z,2.08
2019-01-26T18:58:45.525Z,2.15
2019-01-26T19:01:19.556Z,1.96
2019-01-26T19:04:20.392Z,1.99
2019-01-26T19:06:51.614Z,2.00
2019-01-26T19:09:22.841Z,2.16
2019-01-26T19:11:56.621Z,2.05
2019-01-26T19:14:30.820Z,2.04
2019-01-26T19:17:02.057Z,2.08
2019-01-26T19:19:33.308Z,2.17
2019-01-26T19:22:08.441Z,2.10
2019-01-26T19:24:40.771Z,2.11
2019-01-26T19:27:13.610Z,2.13
2019-01-26T19:29:45.736Z,2.08
2019-01-26T19:32:21.358Z,2.17
2019-01-26T19:34:54.848Z,2.27
2019-01-26T19:37:29.449Z,2.19
2019-01-26T19:40:01.901Z,2.24
2019-01-26T19:42:35.830Z,2.23
2019-01-26T19:45:11.119Z,2.20
2019-01-26T19:47:42.682Z,2.27
2019-01-26T19:50:16.961Z,2.32
2019-01-26T19:52:51.924Z,2.39
2019-01-26T19:55:25.808Z,2.24
2019-01-26T19:58:00.322Z,2.26
2019-01-26T20:00:33.086Z,2.39
2019-01-26T20:03:06.762Z,2.37
2019-01-26T20:05:40.973Z,2.26
2019-01-26T20:08:13.260Z,2.26
2019-01-26T20:10:44.962Z,2.23
2019-01-26T20:13:16.993Z,2.33
2019-01-26T20:15:49.862Z,2.21
2019-01-26T20:18:21.876Z,2.29
2019-01-26T20:20:54.053Z,2.33
2019-01-26T20:23:26.015Z,2.41
2019-01-26T20:25:57.526Z,2.41
2019-01-26T20:28:31.051Z,2.50
2019-01-26T20:31:05.185Z,2.32
2019-01-26T20:33:36.356Z,2.28
2019-01-26T20:36:09.814Z,2.33
2019-01-26T20:38:45.130Z,2.28
2019-01-26T20:41:17.456Z,2.34
2019-01-26T20:43:48.720Z,2.36
2019-01-26T20:46:20.322Z,2.38
2019-01-26T20:48:55.094Z,2.36
2019-01-26T20:51:28.136Z,2.43
2019-01-26T20:54:02.210Z,2.37
2019-01-26T20:56:36.640Z,2.30
2019-01-26T20:59:09.266Z,2.37
2019-01-26T21:01:46.184Z,2.37
2019-01-26T21:04:21.837Z,2.40
2019-01-26T21:06:56.134Z,2.46
2019-01-26T21:09:28.610Z,2.39
2019-01-26T21:12:02.896Z,2.34
2019-01-26T21:14:37.098Z,2.38
2019-01-26T21:17:10.288Z,2.29
2019-01-26T21:19:44.300Z,2.24
2019-01-26T21:22:17.637Z,2.30
2019-01-26T21:24:48.946Z,2.31
2019-01-26T21:27:20.233Z,2.32
2019-01-26T21:29:52.230Z,2.27
2019-01-26T21:32:24.113Z,2.23
2019-01-26T21:34:56.272Z,2.34
2019-01-26T21:37:29.284Z,2.31
2019-01-26T21:40:03.252Z,2.38
2019-01-26T21:42:35.314Z,2.39
2019-01-26T21:45:08.811Z,2.37
2019-01-26T21:47:41.322Z,2.39
2019-01-26T21:50:16.133Z,2.37
2019-01-26T21:52:50.321Z,2.39
2019-01-26T21:55:24.367Z,2.34
2019-01-26T21:57:58.457Z,2.37
2019-01-26T22:00:33.989Z,2.41
2019-01-26T22:03:06.735Z,2.41
2019-01-26T22:05:40.567Z,2.44
2019-01-26T22:08:13.781Z,2.49
2019-01-26T22:10:45.445Z,2.55
2019-01-26T22:13:19.446Z,2.48
2019-01-26T22:15:53.446Z,2.50
2019-01-26T22:18:27.526Z,2.54
2019-01-26T22:21:02.212Z,2.58
2019-01-26T22:23:34.906Z,2.54
2019-01-26T22:26:08.297Z,2.48
2019-01-26T22:28:42.845Z,2.46
2019-01-26T22:31:14.050Z,2.43
2019-01-26T22:33:45.523Z,2.46
2019-01-26T22:36:24.823Z,2.55
2019-01-26T22:38:58.327Z,2.61
2019-01-26T22:41:31.949Z,2.62
2019-01-26T22:44:05.077Z,2.70
2019-01-26T22:46:38.543Z,2.65
2019-01-26T22:49:13.044Z,2.64
2019-01-26T22:51:45.649Z,2.66
2019-01-26T22:54:19.793Z,2.67
2019-01-26T22:56:52.807Z,2.60
2019-01-26T22:59:25.576Z,2.72
2019-01-26T23:01:59.222Z,2.63
2019-01-26T23:04:55.079Z,2.65
2019-01-26T23:07:55.794Z,2.70
2019-01-26T23:11:14.044Z,2.65
2019-01-26T23:14:16.143Z,2.69
2019-01-26T23:17:41.740Z,2.72
2019-01-26T23:20:57.308Z,2.86
2019-01-26T23:23:48.858Z,2.84
2019-01-26T23:27:05.298Z,2.79
2019-01-26T23:30:20.061Z,2.77
2019-01-26T23:32:53.324Z,2.80
2019-01-26T23:35:24.632Z,2.89
2019-01-26T23:37:59.990Z,2.93
2019-01-26T23:40:32.405Z,2.87
2019-01-26T23:43:05.990Z,2.95
2019-01-26T23:45:40.027Z,2.94
2019-01-26T23:48:13.278Z,2.89
2019-01-26T23:50:45.528Z,2.89
2019-01-26T23:53:18.741Z,2.89
2019-01-26T23:55:50.332Z,2.94
2019-01-26T23:58:25.039Z,2.78
